createdAt,value
2018-07-24T00:02:33.906Z,21.96
2018-07-24T00:05:08.201Z,21.89
2018-07-24T00:07:42.771Z,21.84
2018-07-24T00:10:17.284Z,21.82
2018-07-24T00:12:51.634Z,21.79
2018-07-24T00:15:25.979Z,21.77
2018-07-24T00:18:00.413Z,21.80
2018-07-24T00:20:35.084Z,21.73
2018-07-24T00:23:09.650Z,21.64
2018-07-24T00:25:44.091Z,21.57
2018-07-24T00:28:18.565Z,21.60
2018-07-24T00:30:53.237Z,21.58
2018-07-24T00:33:27.744Z,21.61
2018-07-24T00:36:02.234Z,21.57
2018-07-24T00:38:36.833Z,21.62
2018-07-24T00:41:11.479Z,21.60
2018-07-24T00:43:46.033Z,21.58
2018-07-24T00:46:20.473Z,21.55
2018-07-24T00:48:54.889Z,21.56
2018-07-24T00:51:29.647Z,21.61
2018-07-24T00:54:04.223Z,21.62
2018-07-24T00:56:38.728Z,21.64
2018-07-24T00:59:13.144Z,21.60
2018-07-24T01:01:47.618Z,21.48
2018-07-24T01:04:22.253Z,21.53
2018-07-24T01:06:56.938Z,21.51
2018-07-24T01:09:31.572Z,21.59
2018-07-24T01:12:06.207Z,21.55
2018-07-24T01:14:40.959Z,21.48
2018-07-24T01:17:15.512Z,21.46
2018-07-24T01:19:50.043Z,21.41
2018-07-24T01:22:24.598Z,21.30
2018-07-24T01:24:59.136Z,21.35
2018-07-24T01:27:33.802Z,21.28
2018-07-24T01:30:08.382Z,21.26
2018-07-24T01:32:42.870Z,21.30
2018-07-24T01:35:17.563Z,21.20
2018-07-24T01:37:52.056Z,21.13
2018-07-24T01:40:26.625Z,21.10
2018-07-24T01:43:01.040Z,21.08
2018-07-24T01:45:35.393Z,21.08
2018-07-24T01:48:09.742Z,21.03
2018-07-24T01:50:44.297Z,20.99
2018-07-24T01:53:18.809Z,21.00
2018-07-24T01:55:53.215Z,20.99
2018-07-24T01:58:27.597Z,20.94
2018-07-24T02:01:03.513Z,20.94
2018-07-24T02:03:37.957Z,20.88
2018-07-24T02:06:12.401Z,20.82
2018-07-24T02:08:46.998Z,20.80
2018-07-24T02:11:21.717Z,20.85
2018-07-24T02:13:56.385Z,20.80
2018-07-24T02:16:31.000Z,20.70
2018-07-24T02:19:05.665Z,20.72
2018-07-24T02:21:40.335Z,20.66
2018-07-24T02:24:14.665Z,20.58
2018-07-24T02:26:49.082Z,20.63
2018-07-24T02:29:23.670Z,20.62
2018-07-24T02:31:58.113Z,20.57
2018-07-24T02:34:46.337Z,20.55
2018-07-24T02:37:21.001Z,20.47
2018-07-24T02:39:55.482Z,20.49
2018-07-24T02:42:30.045Z,20.47
2018-07-24T02:48:03.564Z,20.31
2018-07-24T02:50:45.179Z,20.39
2018-07-24T02:53:38.574Z,20.36
2018-07-24T02:56:13.769Z,20.27
2018-07-24T02:58:48.468Z,20.34
2018-07-24T03:01:36.432Z,20.33
2018-07-24T03:04:14.833Z,20.38
2018-07-24T03:07:03.581Z,20.36
2018-07-24T03:09:37.981Z,20.37
2018-07-24T03:21:09.900Z,20.21
2018-07-24T03:23:44.565Z,20.31
2018-07-24T03:26:39.086Z,20.29
2018-07-24T03:29:13.760Z,20.21
2018-07-24T03:38:06.732Z,20.18
2018-07-24T03:46:39.300Z,20.31
2018-07-24T03:49:13.810Z,20.26
2018-07-24T03:51:48.750Z,20.21
2018-07-24T03:54:23.356Z,20.30
2018-07-24T03:56:57.790Z,20.32
2018-07-24T03:59:32.372Z,20.31
2018-07-24T04:02:06.984Z,20.50
2018-07-24T04:04:41.645Z,20.53
2018-07-24T04:07:16.148Z,20.54
2018-07-24T04:09:50.637Z,20.56
2018-07-24T04:12:25.572Z,20.63
2018-07-24T04:15:00.377Z,20.59
2018-07-24T04:17:35.013Z,20.49
2018-07-24T04:20:09.530Z,20.43
2018-07-24T04:22:44.141Z,20.53
2018-07-24T04:25:18.708Z,20.60
2018-07-24T04:27:53.302Z,20.64
2018-07-24T04:30:27.894Z,20.63
2018-07-24T04:33:02.424Z,20.62
2018-07-24T04:35:37.046Z,20.58
2018-07-24T04:38:11.644Z,20.68
2018-07-24T04:40:46.353Z,20.80
2018-07-24T04:43:20.875Z,20.86
2018-07-24T04:45:55.428Z,20.76
2018-07-24T04:48:30.002Z,20.80
2018-07-24T04:51:04.609Z,20.84
2018-07-24T04:53:39.357Z,20.82
2018-07-24T04:56:13.949Z,20.80
2018-07-24T04:58:48.813Z,20.92
2018-07-24T05:01:23.545Z,21.11
2018-07-24T05:03:58.024Z,21.32
2018-07-24T05:06:32.828Z,21.47
2018-07-24T05:09:10.416Z,21.59
2018-07-24T05:11:45.093Z,21.80
2018-07-24T05:14:19.528Z,21.92
2018-07-24T05:16:54.001Z,22.03
2018-07-24T05:19:28.492Z,22.09
2018-07-24T05:22:02.904Z,22.12
2018-07-24T05:24:37.318Z,22.17
2018-07-24T05:27:11.709Z,22.17
2018-07-24T05:29:46.183Z,22.30
2018-07-24T05:32:20.759Z,22.45
2018-07-24T05:34:55.267Z,22.58
2018-07-24T05:37:30.484Z,22.66
2018-07-24T05:40:04.913Z,22.73
2018-07-24T05:42:39.372Z,22.88
2018-07-24T05:45:13.846Z,23.00
2018-07-24T05:47:48.508Z,23.08
2018-07-24T05:50:23.243Z,23.25
2018-07-24T05:52:57.812Z,23.34
2018-07-24T05:55:32.451Z,23.45
2018-07-24T05:58:07.889Z,23.58
2018-07-24T06:00:42.432Z,23.68
2018-07-24T06:03:17.134Z,23.81
2018-07-24T06:05:59.566Z,23.96
2018-07-24T06:08:33.939Z,24.06
2018-07-24T06:11:08.783Z,24.22
2018-07-24T06:13:44.108Z,24.35
2018-07-24T06:16:18.712Z,24.46
2018-07-24T06:18:53.469Z,24.56
2018-07-24T06:21:27.965Z,24.81
2018-07-24T06:24:02.489Z,24.78
2018-07-24T06:29:36.262Z,25.29
2018-07-24T06:32:10.677Z,26.25
2018-07-24T06:34:45.310Z,29.22
2018-07-24T06:37:19.791Z,32.42
2018-07-24T06:39:54.374Z,33.43
2018-07-24T06:42:28.926Z,34.19
2018-07-24T06:45:03.496Z,35.45
2018-07-24T06:47:38.322Z,36.66
2018-07-24T06:50:12.737Z,36.54
2018-07-24T06:52:48.144Z,36.71
2018-07-24T06:55:22.636Z,37.16
2018-07-24T06:57:57.032Z,38.36
2018-07-24T07:00:31.489Z,38.70
2018-07-24T07:03:05.902Z,38.75
2018-07-24T07:05:40.460Z,38.54
2018-07-24T07:08:14.895Z,39.46
2018-07-24T07:10:49.340Z,39.11
2018-07-24T07:13:23.657Z,40.21
2018-07-24T07:15:58.072Z,39.07
2018-07-24T07:18:32.416Z,38.51
2018-07-24T07:21:07.040Z,37.30
2018-07-24T07:23:41.568Z,40.21
2018-07-24T07:26:16.097Z,39.00
2018-07-24T07:28:50.819Z,37.66
2018-07-24T07:31:25.249Z,39.42
2018-07-24T07:33:59.905Z,41.74
2018-07-24T07:36:34.325Z,41.37
2018-07-24T07:39:09.865Z,42.90
2018-07-24T07:41:44.204Z,42.16
2018-07-24T07:44:18.728Z,43.17
2018-07-24T07:46:53.284Z,42.30
2018-07-24T07:49:27.681Z,42.04
2018-07-24T07:52:02.203Z,41.18
2018-07-24T07:54:36.701Z,39.80
2018-07-24T07:57:11.160Z,37.85
2018-07-24T07:59:45.809Z,40.49
2018-07-24T08:02:20.355Z,42.88
2018-07-24T08:04:54.637Z,43.06
2018-07-24T08:07:29.075Z,42.77
2018-07-24T08:10:03.524Z,40.67
2018-07-24T08:12:37.928Z,39.77
2018-07-24T08:15:12.280Z,40.23
2018-07-24T08:17:46.628Z,41.53
2018-07-24T08:20:21.024Z,43.84
2018-07-24T08:23:01.013Z,44.00
2018-07-24T08:25:35.364Z,39.89
2018-07-24T08:28:09.753Z,37.99
2018-07-24T08:30:44.266Z,40.31
2018-07-24T08:33:18.968Z,42.51
2018-07-24T08:36:00.096Z,42.01
2018-07-24T08:38:38.498Z,42.42
2018-07-24T08:41:13.168Z,41.46
2018-07-24T08:46:59.192Z,43.11
2018-07-24T08:49:33.844Z,41.74
2018-07-24T08:55:08.244Z,41.86
2018-07-24T08:57:42.853Z,41.89
2018-07-24T09:00:17.386Z,41.12
2018-07-24T09:02:52.517Z,42.16
2018-07-24T09:05:27.085Z,39.21
2018-07-24T09:08:01.943Z,42.14
2018-07-24T09:10:36.440Z,39.48
2018-07-24T09:13:11.071Z,38.62
2018-07-24T09:15:45.693Z,42.03
2018-07-24T09:18:20.268Z,40.18
2018-07-24T09:20:54.759Z,38.73
2018-07-24T09:23:29.220Z,43.86
2018-07-24T09:26:03.642Z,42.87
2018-07-24T09:28:38.576Z,45.42
2018-07-24T09:31:13.157Z,42.33
2018-07-24T09:33:47.549Z,43.31
2018-07-24T09:36:22.029Z,40.89
2018-07-24T09:38:56.616Z,40.52
2018-07-24T09:41:31.041Z,37.79
2018-07-24T09:44:05.508Z,41.73
2018-07-24T09:46:39.992Z,44.35
2018-07-24T09:49:14.597Z,45.17
2018-07-24T09:51:49.457Z,44.17
2018-07-24T09:54:24.402Z,41.19
2018-07-24T09:56:59.233Z,43.76
2018-07-24T09:59:33.946Z,38.72
2018-07-24T10:02:08.456Z,41.70
2018-07-24T10:04:43.492Z,42.38
2018-07-24T10:07:18.027Z,41.13
2018-07-24T10:09:52.612Z,42.14
2018-07-24T10:12:27.130Z,43.60
2018-07-24T10:15:05.816Z,44.13
2018-07-24T10:17:40.683Z,39.71
2018-07-24T10:20:15.320Z,43.23
2018-07-24T10:22:56.230Z,40.23
2018-07-24T10:25:30.809Z,40.72
2018-07-24T10:28:05.276Z,41.82
2018-07-24T10:30:39.663Z,43.89
2018-07-24T10:33:14.179Z,44.00
2018-07-24T10:35:55.084Z,44.49
2018-07-24T10:38:29.620Z,41.27
2018-07-24T10:41:18.256Z,43.38
2018-07-24T10:43:53.329Z,45.02
2018-07-24T10:46:27.666Z,43.86
2018-07-24T10:49:02.387Z,43.48
2018-07-24T10:54:35.760Z,41.91
2018-07-24T10:57:10.433Z,43.13
2018-07-24T10:59:45.707Z,41.78
2018-07-24T11:05:23.117Z,41.98
2018-07-24T11:11:00.651Z,41.31
2018-07-24T11:13:35.292Z,42.53
2018-07-24T11:16:09.720Z,42.66
2018-07-24T11:18:50.485Z,43.53
2018-07-24T11:21:24.957Z,44.20
2018-07-24T11:23:59.429Z,44.71
2018-07-24T11:26:33.840Z,43.93
2018-07-24T11:29:08.308Z,41.80
2018-07-24T11:31:42.808Z,40.08
2018-07-24T11:34:17.350Z,42.15
2018-07-24T11:36:51.985Z,37.78
2018-07-24T11:39:26.403Z,39.37
2018-07-24T11:42:00.758Z,39.93
2018-07-24T11:44:35.090Z,40.60
2018-07-24T11:47:09.460Z,39.31
2018-07-24T11:49:43.825Z,41.06
2018-07-24T11:52:18.488Z,37.49
2018-07-24T11:54:53.001Z,37.78
2018-07-24T11:57:27.528Z,36.39
2018-07-24T12:00:01.916Z,35.39
2018-07-24T12:02:36.305Z,35.16
2018-07-24T12:05:10.882Z,33.35
2018-07-24T12:07:45.558Z,32.87
2018-07-24T12:10:20.014Z,32.96
2018-07-24T12:12:54.935Z,33.64
2018-07-24T12:15:29.615Z,33.07
2018-07-24T12:18:03.996Z,33.50
2018-07-24T12:20:38.516Z,33.08
2018-07-24T12:23:13.061Z,33.40
2018-07-24T12:25:47.481Z,32.58
2018-07-24T12:28:21.917Z,32.78
2018-07-24T12:30:56.702Z,32.77
2018-07-24T12:33:31.363Z,32.68
2018-07-24T12:36:05.890Z,32.60
2018-07-24T12:38:40.480Z,32.50
2018-07-24T12:41:15.092Z,32.58
2018-07-24T12:43:49.546Z,32.44
2018-07-24T12:46:23.901Z,32.16
2018-07-24T12:48:58.478Z,32.05
2018-07-24T12:51:33.113Z,31.80
2018-07-24T12:54:07.528Z,31.61
2018-07-24T12:56:41.876Z,31.62
2018-07-24T12:59:16.406Z,31.85
2018-07-24T13:01:50.917Z,31.81
2018-07-24T13:04:25.618Z,31.91
2018-07-24T13:07:00.186Z,32.20
2018-07-24T13:09:34.688Z,31.94
2018-07-24T13:12:09.094Z,32.02
2018-07-24T13:14:43.705Z,32.25
2018-07-24T13:17:18.027Z,32.09
2018-07-24T13:19:52.677Z,31.84
2018-07-24T13:22:27.253Z,32.19
2018-07-24T13:25:01.728Z,32.10
2018-07-24T13:30:35.320Z,32.30
2018-07-24T13:33:09.816Z,32.29
2018-07-24T13:35:44.333Z,31.98
2018-07-24T13:38:18.753Z,32.24
2018-07-24T13:40:53.191Z,32.11
2018-07-24T13:43:27.636Z,32.45
2018-07-24T13:46:02.432Z,32.70
2018-07-24T13:48:36.917Z,32.71
2018-07-24T13:51:11.612Z,32.58
2018-07-24T13:53:45.973Z,32.37
2018-07-24T13:56:20.758Z,32.69
2018-07-24T13:58:55.170Z,32.67
2018-07-24T14:01:29.614Z,32.77
2018-07-24T14:04:04.587Z,32.72
2018-07-24T14:06:39.693Z,32.67
2018-07-24T14:09:14.500Z,32.84
2018-07-24T14:11:49.053Z,32.74
2018-07-24T14:14:23.504Z,32.86
2018-07-24T14:16:57.980Z,32.84
2018-07-24T14:19:32.562Z,32.96
2018-07-24T14:22:06.875Z,33.36
2018-07-24T14:24:41.355Z,33.51
2018-07-24T14:27:16.596Z,33.75
2018-07-24T14:29:51.031Z,34.27
2018-07-24T14:32:26.382Z,34.98
2018-07-24T14:35:01.063Z,36.27
2018-07-24T14:37:35.341Z,37.15
2018-07-24T14:40:09.814Z,36.38
2018-07-24T14:42:44.354Z,36.61
2018-07-24T14:45:18.810Z,38.33
2018-07-24T14:47:53.071Z,38.40
2018-07-24T14:50:27.565Z,38.53
2018-07-24T14:53:01.808Z,38.06
2018-07-24T14:55:36.245Z,39.23
2018-07-24T14:58:28.102Z,38.70
2018-07-24T15:01:02.604Z,38.67
2018-07-24T15:03:37.015Z,38.48
2018-07-24T15:06:11.453Z,37.82
2018-07-24T15:08:49.299Z,37.73
2018-07-24T15:11:23.720Z,37.73
2018-07-24T15:13:58.024Z,37.79
2018-07-24T15:16:44.611Z,38.25
2018-07-24T15:19:18.912Z,37.62
2018-07-24T15:21:53.312Z,38.02
2018-07-24T15:24:27.987Z,37.72
2018-07-24T15:27:02.451Z,37.57
2018-07-24T15:29:36.748Z,38.24
2018-07-24T15:32:11.518Z,36.82
2018-07-24T15:34:46.060Z,36.38
2018-07-24T15:37:20.746Z,35.97
2018-07-24T15:39:55.007Z,34.65
2018-07-24T15:42:29.468Z,34.97
2018-07-24T15:45:03.925Z,34.68
2018-07-24T15:47:38.315Z,33.91
2018-07-24T15:50:13.063Z,33.92
2018-07-24T15:52:47.647Z,33.68
2018-07-24T15:55:22.091Z,33.76
2018-07-24T15:57:56.571Z,33.73
2018-07-24T16:00:31.059Z,33.62
2018-07-24T16:03:05.707Z,33.46
2018-07-24T16:05:39.914Z,33.23
2018-07-24T16:08:14.419Z,32.66
2018-07-24T16:10:48.797Z,32.69
2018-07-24T16:13:23.333Z,32.51
2018-07-24T16:15:57.827Z,32.18
2018-07-24T16:18:32.339Z,32.38
2018-07-24T16:21:06.708Z,32.22
2018-07-24T16:23:41.015Z,31.68
2018-07-24T16:29:22.745Z,31.80
2018-07-24T16:31:57.174Z,31.69
2018-07-24T16:34:31.633Z,31.64
2018-07-24T16:37:12.644Z,31.59
2018-07-24T16:39:56.792Z,31.65
2018-07-24T16:42:31.223Z,31.70
2018-07-24T16:45:05.740Z,31.53
2018-07-24T16:47:40.328Z,31.64
2018-07-24T16:50:14.623Z,31.49
2018-07-24T16:52:48.939Z,31.55
2018-07-24T16:58:25.783Z,31.54
2018-07-24T17:01:00.260Z,31.49
2018-07-24T17:03:34.805Z,31.53
2018-07-24T17:06:09.511Z,31.36
2018-07-24T17:08:43.961Z,31.29
2018-07-24T17:11:18.456Z,31.15
2018-07-24T17:13:52.799Z,31.11
2018-07-24T17:16:27.400Z,31.03
2018-07-24T17:19:01.920Z,30.96
2018-07-24T17:21:36.384Z,30.89
2018-07-24T17:24:27.475Z,30.87
2018-07-24T17:27:13.296Z,30.86
2018-07-24T17:29:48.656Z,30.80
2018-07-24T17:32:23.480Z,30.77
2018-07-24T17:34:58.328Z,30.62
2018-07-24T17:37:32.909Z,30.57
2018-07-24T17:40:07.548Z,30.49
2018-07-24T17:42:42.156Z,30.32
2018-07-24T17:45:16.815Z,30.33
2018-07-24T17:47:51.498Z,30.23
2018-07-24T17:50:26.145Z,30.18
2018-07-24T17:53:00.728Z,30.13
2018-07-24T17:55:35.148Z,30.23
2018-07-24T17:58:09.508Z,30.16
2018-07-24T18:00:44.017Z,30.02
2018-07-24T18:03:18.372Z,29.92
2018-07-24T18:05:52.759Z,29.81
2018-07-24T18:08:27.197Z,29.62
2018-07-24T18:11:01.677Z,29.55
2018-07-24T18:13:36.307Z,29.40
2018-07-24T18:16:10.904Z,29.37
2018-07-24T18:18:45.337Z,29.42
2018-07-24T18:21:25.310Z,29.43
2018-07-24T18:24:01.025Z,29.25
2018-07-24T18:26:42.833Z,29.22
2018-07-24T18:29:21.708Z,29.09
2018-07-24T18:32:10.913Z,29.16
2018-07-24T18:34:46.436Z,28.95
2018-07-24T18:37:21.216Z,28.87
2018-07-24T18:39:56.000Z,28.87
2018-07-24T18:42:38.211Z,28.82
2018-07-24T18:48:10.587Z,28.82
2018-07-24T18:50:45.758Z,28.81
2018-07-24T18:53:20.192Z,28.74
2018-07-24T18:56:08.571Z,28.78
2018-07-24T18:58:46.692Z,28.57
2018-07-24T19:01:21.068Z,28.58
2018-07-24T19:03:55.391Z,28.44
2018-07-24T19:06:29.783Z,28.43
2018-07-24T19:09:06.076Z,28.28
2018-07-24T19:11:40.572Z,28.42
2018-07-24T19:14:14.844Z,28.24
2018-07-24T19:16:49.616Z,28.04
2018-07-24T19:19:24.275Z,27.92
2018-07-24T19:21:58.824Z,28.00
2018-07-24T19:24:33.719Z,28.06
2018-07-24T19:27:08.196Z,27.84
2018-07-24T19:29:42.736Z,27.60
2018-07-24T19:32:17.232Z,27.38
2018-07-24T19:34:51.937Z,27.39
2018-07-24T19:37:26.260Z,27.27
2018-07-24T19:40:00.793Z,27.22
2018-07-24T19:42:35.590Z,27.06
2018-07-24T19:45:10.096Z,26.92
2018-07-24T19:47:44.619Z,26.88
2018-07-24T19:50:19.191Z,26.68
2018-07-24T19:52:53.899Z,26.56
2018-07-24T19:55:28.524Z,26.62
2018-07-24T19:58:03.024Z,26.84
2018-07-24T20:00:37.828Z,26.99
2018-07-24T20:03:12.340Z,27.15
2018-07-24T20:05:46.871Z,27.16
2018-07-24T20:08:21.239Z,26.95
2018-07-24T20:10:56.024Z,26.77
2018-07-24T20:13:30.437Z,26.59
2018-07-24T20:16:05.116Z,26.64
2018-07-24T20:21:36.856Z,26.74
2018-07-24T20:24:11.725Z,26.62
2018-07-24T20:26:46.692Z,26.58
2018-07-24T20:29:21.764Z,26.56
2018-07-24T20:31:56.609Z,26.45
2018-07-24T20:34:51.987Z,26.31
2018-07-24T20:43:27.824Z,26.16
2018-07-24T20:46:02.207Z,26.12
2018-07-24T20:48:36.718Z,26.10
2018-07-24T20:51:11.062Z,25.99
2018-07-24T20:53:45.272Z,25.86
2018-07-24T20:56:19.609Z,25.82
2018-07-24T20:58:54.083Z,25.72
2018-07-24T21:01:28.459Z,25.63
2018-07-24T21:04:02.832Z,25.58
2018-07-24T21:06:37.255Z,25.49
2018-07-24T21:09:11.641Z,25.48
2018-07-24T21:11:45.960Z,25.37
2018-07-24T21:14:20.732Z,25.33
2018-07-24T21:16:55.235Z,25.29
2018-07-24T21:19:29.523Z,25.28
2018-07-24T21:22:03.951Z,25.21
2018-07-24T21:24:38.659Z,25.22
2018-07-24T21:27:13.183Z,25.21
2018-07-24T21:29:47.580Z,25.19
2018-07-24T21:32:22.154Z,25.20
2018-07-24T21:34:56.485Z,25.16
2018-07-24T21:37:31.205Z,25.11
2018-07-24T21:40:06.168Z,25.05
2018-07-24T21:42:40.630Z,25.02
2018-07-24T21:45:14.876Z,24.92
2018-07-24T21:47:49.561Z,24.88
2018-07-24T21:50:23.959Z,24.84
2018-07-24T21:52:58.504Z,24.82
2018-07-24T21:56:36.227Z,24.82
2018-07-24T21:59:10.580Z,24.86
2018-07-24T22:01:45.208Z,24.70
2018-07-24T22:04:19.639Z,24.53
2018-07-24T22:06:54.262Z,24.40
2018-07-24T22:09:28.980Z,24.37
2018-07-24T22:12:08.044Z,24.34
2018-07-24T22:14:42.258Z,24.30
2018-07-24T22:17:16.879Z,24.28
2018-07-24T22:19:51.257Z,24.30
2018-07-24T22:22:25.540Z,24.39
2018-07-24T22:24:59.915Z,24.56
2018-07-24T22:27:34.603Z,24.72
2018-07-24T22:30:09.672Z,24.71
2018-07-24T22:32:44.103Z,24.84
2018-07-24T22:35:18.334Z,25.05
2018-07-24T22:37:52.728Z,25.15
2018-07-24T22:40:26.967Z,25.25
2018-07-24T22:43:01.189Z,25.33
2018-07-24T22:45:35.545Z,25.42
2018-07-24T22:48:09.897Z,25.44
2018-07-24T22:50:44.260Z,25.42
2018-07-24T22:53:18.653Z,25.41
2018-07-24T22:55:53.329Z,25.35
2018-07-24T22:58:28.074Z,25.28
2018-07-24T23:01:02.460Z,25.21
2018-07-24T23:03:36.841Z,25.23
2018-07-24T23:06:11.560Z,25.19
2018-07-24T23:08:45.841Z,25.11
2018-07-24T23:11:20.121Z,25.08
2018-07-24T23:13:54.855Z,25.06
2018-07-24T23:16:29.422Z,25.02
2018-07-24T23:19:04.064Z,24.91
2018-07-24T23:21:38.831Z,24.88
2018-07-24T23:24:14.241Z,24.86
2018-07-24T23:26:48.904Z,24.86
2018-07-24T23:29:23.768Z,24.83
2018-07-24T23:31:58.286Z,24.81
2018-07-24T23:34:36.895Z,24.77
2018-07-24T23:37:12.897Z,24.70
2018-07-24T23:39:47.461Z,24.64
2018-07-24T23:42:21.967Z,24.57
2018-07-24T23:44:56.622Z,24.50
2018-07-24T23:47:31.084Z,24.43
2018-07-24T23:50:05.609Z,24.36
2018-07-24T23:52:40.418Z,24.32
2018-07-24T23:55:14.881Z,24.28
2018-07-24T23:57:49.309Z,24.21
